Time;durP1;ratioP1;P1;durP2;ratioP2;P2;SDS_P1;SDS_P2;PMS_P1;PMS_P2;Temp;Humidity;BMP_temperature;BMP_pressure;BME280_temperature;BME280_humidity;BME280_pressure;Samples;Min_cycle;Max_cycle;Signal;HPM_P1;HPM_P2
2023/06/08 00:01:54;;;;;;;24.92;12.63;;;18.00;99.90;;;18.42;71.17;101847.63;4936954;29;20079;-64
2023/06/08 00:13:16;;;;;;;23.45;12.30;;;17.90;99.90;;;18.21;71.89;101837.34;5066679;23;20056;-63
2023/06/08 00:15:45;;;;;;;21.02;12.50;;;17.90;99.90;;;18.20;71.76;101840.91;4927542;29;20497;-63
2023/06/08 00:18:13;;;;;;;23.60;12.98;;;17.80;99.90;;;18.26;72.03;101840.78;4927269;29;20059;-62
2023/06/08 00:20:42;;;;;;;21.42;12.55;;;17.90;99.90;;;18.23;72.23;101834.63;4926438;29;20143;-62
2023/06/08 00:23:10;;;;;;;20.40;12.20;;;17.80;99.90;;;18.11;72.49;101833.06;4928067;29;20051;-63
2023/06/08 00:25:39;;;;;;;21.95;12.18;;;17.70;99.90;;;18.11;72.54;101834.84;4925803;29;20084;-63
2023/06/08 00:28:07;;;;;;;24.48;12.93;;;17.70;99.90;;;18.01;72.70;101834.16;4928584;29;20048;-62
2023/06/08 00:30:39;;;;;;;22.38;13.13;;;17.60;99.90;;;18.02;72.80;101831.44;4921657;29;20096;-63
2023/06/08 00:33:08;;;;;;;19.27;12.57;;;17.70;99.90;;;17.94;72.99;101811.09;4927918;29;20106;-62
2023/06/08 00:35:38;;;;;;;25.10;14.15;;;17.60;99.90;;;17.97;72.95;101821.72;4926703;29;20127;-63
2023/06/08 00:38:07;;;;;;;23.00;12.98;;;17.60;99.90;;;18.05;72.97;101827.81;4926504;29;20059;-62
2023/06/08 00:40:37;;;;;;;22.42;12.77;;;17.60;99.90;;;18.01;73.07;101828.78;4910923;29;20088;-62
2023/06/08 00:43:06;;;;;;;21.38;13.20;;;17.60;99.90;;;18.06;73.19;101831.41;4925489;29;20387;-65
2023/06/08 00:49:54;;;;;;;22.17;12.20;;;17.70;99.90;;;18.02;73.05;101823.41;5069102;23;20134;-75
2023/06/08 00:52:25;;;;;;;18.52;12.35;;;17.60;99.90;;;17.98;73.17;101812.81;4933992;29;20110;-75
2023/06/08 00:54:54;;;;;;;22.70;13.63;;;17.60;99.90;;;17.99;73.06;101817.22;4932386;29;20098;-75
2023/06/08 01:12:40;;;;;;;28.83;14.65;;;17.50;99.90;;;17.71;74.15;101784.75;5247605;23;20105;-63
2023/06/08 01:15:19;;;;;;;20.70;13.83;;;17.40;99.90;;;17.24;74.12;101712.50;4926587;29;20061;-63
2023/06/08 01:17:52;;;;;;;24.88;15.30;;;17.30;99.90;;;17.52;74.69;101755.69;4923559;29;20304;-63
2023/06/08 01:20:34;;;;;;;28.38;15.23;;;17.30;99.90;;;17.58;75.02;101776.97;4934131;29;20094;-63
2023/06/08 01:23:26;;;;;;;27.08;14.93;;;17.20;99.90;;;17.62;75.06;101784.03;4932330;29;20079;-62
2023/06/08 01:25:57;;;;;;;22.67;14.88;;;17.20;99.90;;;17.59;75.03;101789.47;4935533;29;20061;-62
2023/06/08 01:28:30;;;;;;;30.27;15.55;;;17.20;99.90;;;17.57;75.35;101776.13;4932277;29;20044;-62
2023/06/08 01:30:59;;;;;;;24.58;14.90;;;17.20;99.90;;;17.54;75.18;101789.53;4935418;29;20048;-62
2023/06/08 01:33:31;;;;;;;26.83;15.95;;;17.20;99.90;;;17.51;75.76;101789.63;4934405;29;20405;-62
2023/06/08 01:36:07;;;;;;;24.83;15.68;;;17.10;99.90;;;17.48;75.56;101783.41;4934188;29;20517;-62
2023/06/08 01:38:44;;;;;;;23.35;15.02;;;17.10;99.90;;;17.48;75.60;101786.97;4931876;29;20059;-63
2023/06/08 01:41:21;;;;;;;26.58;15.63;;;17.10;99.90;;;17.50;75.55;101793.19;4935358;29;20047;-62
2023/06/08 01:43:52;;;;;;;26.25;15.02;;;17.10;99.90;;;17.54;75.61;101788.66;4935316;29;20051;-63
2023/06/08 01:46:23;;;;;;;25.70;16.13;;;17.20;99.90;;;17.43;75.84;101779.91;4931708;29;20059;-63
2023/06/08 01:48:58;;;;;;;24.42;15.25;;;17.10;99.90;;;17.37;75.87;101782.69;4935368;29;20143;-64
2023/06/08 01:51:27;;;;;;;25.48;15.65;;;17.00;99.90;;;17.32;76.40;101784.56;4935628;29;20058;-62
2023/06/08 01:54:03;;;;;;;22.55;14.90;;;16.90;99.90;;;17.28;76.16;101761.47;4933986;29;20083;-63
2023/06/08 01:56:35;;;;;;;26.63;15.80;;;17.00;99.90;;;17.29;76.14;101771.25;4941983;29;20060;-62
2023/06/08 01:59:04;;;;;;;23.55;15.50;;;17.00;99.90;;;17.36;76.46;101783.63;4916014;29;20424;-64
2023/06/08 02:01:32;;;;;;;24.67;15.65;;;17.00;99.90;;;17.31;76.44;101780.13;4934007;29;20043;-62
2023/06/08 02:04:01;;;;;;;26.20;15.55;;;17.00;99.90;;;17.30;76.59;101775.69;4935777;29;20059;-62
2023/06/08 02:06:30;;;;;;;27.48;15.57;;;17.00;99.90;;;17.32;76.61;101785.47;4937715;29;20094;-62
2023/06/08 02:09:01;;;;;;;26.23;15.48;;;16.90;99.90;;;17.33;76.56;101789.00;4937964;29;20068;-62
2023/06/08 02:11:29;;;;;;;25.85;16.23;;;16.90;99.90;;;17.29;76.40;101781.94;4939070;29;20433;-62
2023/06/08 02:13:59;;;;;;;27.20;15.95;;;16.90;99.90;;;17.34;76.55;101780.09;4939019;29;20052;-62
2023/06/08 02:16:27;;;;;;;24.65;15.18;;;16.90;99.90;;;17.34;77.00;101785.44;4935241;29;20417;-62
2023/06/08 02:18:58;;;;;;;24.98;15.98;;;17.00;99.90;;;17.29;76.89;101782.81;4938817;29;20055;-63
2023/06/08 02:21:26;;;;;;;21.63;15.38;;;16.90;99.90;;;17.27;77.04;101778.41;4938722;29;20508;-62
2023/06/08 02:23:55;;;;;;;29.10;17.08;;;16.90;99.90;;;17.23;77.13;101764.22;4938753;29;20527;-62
2023/06/08 02:26:23;;;;;;;27.23;15.70;;;16.80;99.90;;;17.30;76.66;101778.38;4938691;29;20082;-63
2023/06/08 02:28:53;;;;;;;26.70;15.90;;;16.90;99.90;;;17.34;76.56;101769.38;4938643;29;20483;-63
2023/06/08 02:31:25;;;;;;;18.92;14.82;;;16.90;99.90;;;17.33;76.70;101764.94;4938598;29;20175;-63
2023/06/08 02:33:53;;;;;;;21.85;15.40;;;16.90;99.90;;;17.39;76.52;101775.53;4938541;29;20051;-63
2023/06/08 02:36:23;;;;;;;22.90;15.60;;;17.00;99.90;;;17.40;76.53;101774.63;4934800;29;20515;-64
2023/06/08 02:38:51;;;;;;;23.38;15.75;;;17.00;99.90;;;17.38;76.15;101774.63;4938527;29;20047;-62
2023/06/08 02:41:20;;;;;;;26.52;16.08;;;17.00;99.90;;;17.36;76.21;101771.13;4937184;29;20059;-62
2023/06/08 02:43:49;;;;;;;28.67;15.80;;;16.90;99.90;;;17.34;76.26;101764.03;4937260;29;20564;-62
2023/06/08 02:46:19;;;;;;;22.75;15.15;;;17.00;99.90;;;17.03;76.48;101731.59;4937076;29;20408;-62
2023/06/08 02:48:49;;;;;;;22.73;14.73;;;16.90;99.90;;;17.22;76.23;101775.81;4937165;29;20051;-63
2023/06/08 02:51:19;;;;;;;21.70;15.13;;;16.80;99.90;;;17.21;76.58;101787.41;4937254;29;20106;-62
2023/06/08 02:53:48;;;;;;;24.50;16.08;;;16.80;99.90;;;17.14;76.68;101783.97;4933910;29;20565;-64
2023/06/08 02:56:16;;;;;;;29.08;15.88;;;16.80;99.90;;;17.19;76.83;101778.53;4934388;29;20509;-62
2023/06/08 02:58:46;;;;;;;27.20;16.30;;;16.80;99.90;;;17.20;76.62;101782.09;4934897;29;20044;-62
2023/06/08 03:01:16;;;;;;;28.92;16.02;;;16.80;99.90;;;17.00;76.55;101751.25;4945293;29;20060;-62
2023/06/08 03:04:18;;;;;;;22.88;16.05;;;16.70;99.90;;;17.15;77.03;101785.72;4932543;29;20052;-62
2023/06/08 03:06:53;;;;;;;24.33;16.00;;;16.80;99.90;;;17.17;76.70;101777.69;4933764;29;20391;-64
2023/06/08 03:09:25;;;;;;;26.70;15.82;;;16.80;99.90;;;17.19;76.80;101778.53;4925347;29;20059;-63
2023/06/08 03:11:56;;;;;;;24.25;15.85;;;16.80;99.90;;;17.22;76.76;101782.97;4945111;29;20596;-63
2023/06/08 03:14:28;;;;;;;22.17;16.45;;;16.80;99.90;;;17.23;76.38;101782.06;4936446;29;20126;-62
2023/06/08 03:17:02;;;;;;;24.13;15.40;;;16.80;99.90;;;16.52;76.53;101662.97;4937447;29;20044;-62
2023/06/08 03:19:37;;;;;;;27.08;16.60;;;16.80;99.90;;;17.23;76.85;101771.38;4932818;29;20058;-63
2023/06/08 03:22:07;;;;;;;24.05;15.68;;;16.80;99.90;;;17.19;76.57;101770.50;4936591;29;20052;-62
2023/06/08 03:24:48;;;;;;;24.92;15.73;;;16.80;99.90;;;17.09;76.85;101768.94;4944818;29;20048;-62
2023/06/08 03:27:19;;;;;;;27.05;16.08;;;16.70;99.90;;;17.10;77.01;101776.91;4933295;29;20052;-62
2023/06/08 03:29:51;;;;;;;22.05;15.07;;;16.70;99.90;;;16.30;77.24;101634.81;4930637;29;20407;-62
2023/06/08 03:32:22;;;;;;;;;;;16.70;99.90;;;17.04;77.20;101778.81;4937931;29;20063;-63
2023/06/08 03:34:52;;;;;;;29.90;16.20;;;16.70;99.90;;;17.01;77.32;101776.19;4937518;29;20629;-62
2023/06/08 03:37:21;;;;;;;26.42;16.42;;;16.60;99.90;;;17.04;77.24;101778.81;4936346;29;20063;-63
2023/06/08 03:39:50;;;;;;;24.80;15.77;;;16.70;99.90;;;17.08;77.36;101764.47;4944436;29;20103;-62
2023/06/08 03:42:20;;;;;;;25.02;16.35;;;16.70;99.90;;;17.07;77.28;101768.94;4933283;29;20144;-63
2023/06/08 03:44:53;;;;;;;26.42;15.00;;;16.70;99.90;;;17.04;77.57;101768.09;4925393;29;20052;-62
2023/06/08 03:47:23;;;;;;;23.48;16.00;;;16.70;99.90;;;17.10;77.12;101768.91;4944468;29;20416;-63
2023/06/08 03:49:54;;;;;;;24.02;16.17;;;16.70;99.90;;;16.89;77.28;101737.19;4937317;29;20460;-63
2023/06/08 03:52:22;;;;;;;32.55;16.63;;;16.70;99.90;;;17.10;77.54;101768.91;4944312;29;20095;-62
2023/06/08 03:54:50;;;;;;;23.30;16.45;;;16.70;99.90;;;17.09;77.46;101769.78;4937656;29;20077;-62
2023/06/08 03:57:22;;;;;;;23.55;16.08;;;16.70;99.90;;;17.02;77.78;101761.91;4944358;29;20493;-64
2023/06/08 03:59:51;;;;;;;24.17;16.08;;;16.70;99.90;;;17.09;77.70;101772.47;4932789;29;20123;-62
2023/06/08 04:02:19;;;;;;;26.23;16.10;;;16.60;99.90;;;17.13;77.70;101778.63;4932846;29;20056;-63
2023/06/08 04:04:49;;;;;;;22.10;16.13;;;16.70;99.90;;;17.15;77.39;101775.03;4935704;29;20051;-63
2023/06/08 04:07:20;;;;;;;21.92;16.02;;;16.70;99.90;;;17.14;77.64;101767.06;4936900;29;20043;-62
2023/06/08 04:09:49;;;;;;;24.83;16.58;;;16.70;99.90;;;17.05;77.77;101765.41;4935608;29;20047;-63
2023/06/08 04:12:17;;;;;;;21.13;15.32;;;16.70;99.90;;;17.07;77.59;101771.59;4937007;29;20054;-63
2023/06/08 04:14:46;;;;;;;22.52;15.88;;;16.70;99.90;;;17.08;77.64;101773.38;4935794;29;20051;-63
2023/06/08 04:17:15;;;;;;;25.95;15.40;;;16.70;99.90;;;17.14;77.58;101778.63;4936784;29;20126;-63
2023/06/08 04:19:44;;;;;;;24.05;15.43;;;16.70;99.90;;;17.14;77.29;101773.28;4935361;29;20066;-64
2023/06/08 04:22:12;;;;;;;23.63;16.42;;;16.70;99.90;;;17.19;77.57;101775.88;4943204;29;20142;-63
2023/06/08 04:24:45;;;;;;;26.50;15.55;;;16.80;99.90;;;17.22;77.54;101775.81;4917154;29;20052;-64
2023/06/08 04:27:16;;;;;;;23.13;15.32;;;16.80;99.90;;;17.16;77.44;101759.88;4934489;29;20085;-64
2023/06/08 04:29:45;;;;;;;22.48;15.35;;;16.80;99.90;;;17.25;77.77;101767.75;4943475;29;20048;-63
2023/06/08 04:32:14;;;;;;;25.17;15.98;;;16.80;99.90;;;17.28;77.70;101770.38;4936409;29;20043;-63
2023/06/08 04:34:43;;;;;;;19.45;15.02;;;16.90;99.90;;;17.33;77.49;101772.94;4935026;29;20047;-62
2023/06/08 04:37:11;;;;;;;26.15;15.57;;;16.90;99.90;;;17.34;77.75;101775.63;4936472;29;20461;-63
2023/06/08 04:39:45;;;;;;;22.08;14.35;;;17.00;99.90;;;17.44;77.49;101779.03;4939191;29;20568;-64
2023/06/08 04:42:14;;;;;;;26.02;15.43;;;17.00;99.90;;;17.44;77.58;101773.66;4935045;29;20053;-63
2023/06/08 04:44:44;;;;;;;21.48;15.20;;;17.10;99.90;;;17.47;77.51;101771.81;4935018;29;20048;-63
2023/06/08 04:47:14;;;;;;;25.88;15.05;;;17.10;99.90;;;17.55;77.15;101782.41;4936341;29;20102;-62
2023/06/08 04:49:43;;;;;;;25.70;14.90;;;17.10;99.90;;;17.58;77.33;101780.56;4936193;29;20058;-63
2023/06/08 04:52:15;;;;;;;24.10;14.85;;;17.10;99.90;;;17.43;76.76;101748.69;4936095;29;20076;-64
2023/06/08 04:54:46;;;;;;;21.67;13.52;;;17.20;99.90;;;17.58;76.90;101775.19;4934904;29;20066;-63
2023/06/08 04:57:16;;;;;;;22.80;13.88;;;17.20;99.90;;;17.64;76.88;101768.84;4932772;29;20102;-63
2023/06/08 04:59:45;;;;;;;22.67;14.20;;;17.20;99.90;;;17.67;76.63;101768.81;4934682;29;20517;-63
2023/06/08 05:02:13;;;;;;;19.45;13.25;;;17.20;99.90;;;17.75;76.42;101769.53;4934702;29;20087;-63
2023/06/08 05:04:42;;;;;;;21.65;13.55;;;17.30;99.90;;;17.75;76.50;101766.88;4936010;29;20056;-63
2023/06/08 05:07:11;;;;;;;18.90;13.65;;;17.30;99.90;;;17.75;76.42;101772.22;4934687;29;20457;-63
2023/06/08 05:09:39;;;;;;;22.55;12.20;;;17.30;99.90;;;17.82;76.32;101780.09;4935735;29;20051;-63
2023/06/08 05:12:11;;;;;;;23.27;14.18;;;17.40;99.90;;;17.79;76.61;101760.50;4935705;29;20091;-63
2023/06/08 05:14:41;;;;;;;20.63;12.43;;;17.40;99.90;;;17.91;76.20;101770.97;4932359;29;20119;-67
2023/06/08 05:17:10;;;;;;;20.27;13.32;;;17.50;99.90;;;17.89;75.66;101759.41;4932418;29;20047;-63
2023/06/08 05:19:38;;;;;;;22.02;13.40;;;17.50;99.90;;;17.84;76.17;101756.88;4934489;29;20469;-66
2023/06/08 05:22:07;;;;;;;22.02;13.68;;;17.50;99.90;;;17.94;75.74;101765.59;4934032;29;20174;-64
2023/06/08 05:24:35;;;;;;;18.92;12.77;;;17.60;99.90;;;17.99;75.84;101767.25;4935658;29;20051;-64
2023/06/08 05:27:05;;;;;;;22.70;13.45;;;17.60;99.90;;;18.12;75.45;101762.50;4935447;29;20048;-64
2023/06/08 05:29:35;;;;;;;20.80;13.73;;;17.70;99.90;;;18.03;75.37;101738.63;4935530;29;20481;-64
2023/06/08 05:32:05;;;;;;;22.38;14.38;;;17.80;99.90;;;18.20;75.23;101765.91;4935696;29;20457;-65
2023/06/08 05:34:33;;;;;;;19.70;12.77;;;17.80;99.90;;;18.27;75.23;101767.56;4935493;29;20051;-63
2023/06/08 05:37:02;;;;;;;22.02;13.48;;;17.80;99.90;;;18.25;74.95;101761.34;4931869;29;20099;-63
2023/06/08 05:39:31;;;;;;;22.60;14.65;;;17.90;99.90;;;18.37;74.23;101773.59;4935178;29;20079;-63
2023/06/08 05:41:59;;;;;;;21.65;13.40;;;18.00;99.90;;;18.39;74.10;101761.91;4934168;29;20056;-63
2023/06/08 05:44:29;;;;;;;24.58;14.13;;;17.90;99.90;;;18.46;74.00;101766.28;4934461;29;20404;-63
2023/06/08 05:46:59;;;;;;;29.23;14.52;;;18.00;99.90;;;18.42;74.11;101758.28;4935326;29;20044;-64
2023/06/08 05:49:27;;;;;;;26.27;15.32;;;18.00;99.90;;;18.29;74.28;101755.00;4935185;29;20131;-64
2023/06/08 05:51:56;;;;;;;17.88;14.02;;;17.90;99.90;;;17.63;74.33;101627.94;4935137;29;20051;-63
2023/06/08 05:54:24;;;;;;;25.40;14.55;;;17.90;99.90;;;18.39;73.95;101758.38;4934085;29;20583;-64
2023/06/08 05:56:52;;;;;;;21.75;14.20;;;18.00;99.90;;;18.45;73.59;101747.53;4942035;29;20055;-63
2023/06/08 05:59:21;;;;;;;24.38;15.77;;;18.10;99.90;;;18.53;73.86;101751.81;4931475;29;20067;-64
2023/06/08 06:01:50;;;;;;;29.48;15.95;;;18.10;99.90;;;18.62;73.80;101764.13;4931767;29;20413;-63
2023/06/08 06:04:20;;;;;;;22.48;15.25;;;18.20;99.90;;;18.66;73.24;101744.38;4935021;29;20039;-66
2023/06/08 06:07:05;;;;;;;21.42;15.35;;;18.30;99.90;;;18.65;73.20;101761.38;4935345;29;20420;-63
2023/06/08 06:09:33;;;;;;;23.00;14.52;;;18.30;99.90;;;18.65;72.77;101732.78;4931395;29;20051;-63
2023/06/08 06:12:02;;;;;;;21.45;15.25;;;18.40;99.90;;;18.73;73.31;101740.63;4935078;29;20102;-64
2023/06/08 06:14:38;;;;;;;23.00;15.73;;;18.40;99.90;;;18.78;72.64;101744.94;4935008;29;20055;-62
2023/06/08 06:17:08;;;;;;;22.98;16.05;;;18.50;99.90;;;18.51;72.64;101686.66;4935115;29;20103;-62
2023/06/08 06:19:38;;;;;;;30.38;15.48;;;18.50;99.90;;;18.80;72.76;101737.75;4935164;29;20464;-62
2023/06/08 06:22:08;;;;;;;22.08;16.38;;;18.50;99.90;;;18.78;72.30;101744.06;4934981;29;20047;-62
2023/06/08 06:24:37;;;;;;;20.40;14.83;;;18.50;99.90;;;18.89;72.68;101737.53;4926973;29;20056;-63
2023/06/08 06:27:07;;;;;;;27.27;15.93;;;18.50;99.90;;;18.86;72.46;101726.00;4935343;29;20055;-62
2023/06/08 06:29:35;;;;;;;23.27;14.93;;;18.60;99.90;;;19.08;72.43;101745.13;4934830;29;20075;-62
2023/06/08 06:32:05;;;;;;;20.58;14.85;;;18.70;99.90;;;19.14;72.01;101742.28;4934944;29;20497;-63
2023/06/08 06:34:33;;;;;;;22.50;15.25;;;18.80;99.90;;;19.17;71.77;101732.34;4934997;29;20079;-64
2023/06/08 06:37:03;;;;;;;24.15;15.30;;;18.80;99.90;;;19.32;71.63;101736.41;4934862;29;20051;-62
2023/06/08 06:39:32;;;;;;;21.08;16.13;;;18.90;99.90;;;19.34;71.12;101729.25;4934902;29;20134;-62
2023/06/08 06:42:00;;;;;;;20.20;14.30;;;19.00;99.90;;;19.42;71.02;101732.59;4934869;29;20040;-62
2023/06/08 06:44:38;;;;;;;26.98;15.10;;;19.00;99.90;;;19.50;70.67;101742.22;4923364;29;20112;-62
2023/06/08 06:47:07;;;;;;;21.92;15.25;;;19.20;99.90;;;19.61;70.14;101747.28;4934663;29;20058;-67
2023/06/08 06:49:36;;;;;;;20.20;14.23;;;19.20;99.90;;;19.80;69.64;101757.47;4934778;29;20064;-70
2023/06/08 06:52:07;;;;;;;25.65;14.73;;;19.40;99.90;;;19.79;68.96;101757.53;4937569;29;20062;-69
2023/06/08 06:54:35;;;;;;;20.67;14.32;;;19.40;99.90;;;19.80;68.83;101748.56;4938668;29;20059;-69
2023/06/08 06:57:04;;;;;;;21.10;13.40;;;19.50;99.90;;;19.89;68.80;101753.66;4938112;29;20099;-69
2023/06/08 06:59:34;;;;;;;23.33;14.55;;;19.50;99.90;;;19.85;68.86;101764.53;4938109;29;20044;-68
2023/06/08 07:02:02;;;;;;;22.08;13.48;;;19.50;99.90;;;20.01;68.91;101760.50;4934028;29;20044;-68
2023/06/08 07:04:31;;;;;;;21.58;14.90;;;19.60;99.90;;;20.14;68.32;101767.25;4938017;29;20078;-69
2023/06/08 07:07:00;;;;;;;22.65;15.38;;;19.80;99.90;;;19.97;67.64;101740.91;4937958;29;20541;-67
2023/06/08 07:09:30;;;;;;;18.35;13.82;;;19.80;99.90;;;20.15;68.00;101745.72;4937843;29;20043;-71
2023/06/08 07:11:58;;;;;;;22.92;14.57;;;19.80;99.90;;;20.34;67.96;101763.06;4937982;29;20040;-73
2023/06/08 07:14:42;;;;;;;22.40;14.98;;;20.00;99.90;;;20.45;67.15;101760.06;4934824;29;20052;-72
2023/06/08 07:17:12;;;;;;;24.90;14.10;;;20.10;99.90;;;20.52;67.17;101749.06;4937841;29;20135;-68
2023/06/08 07:19:40;;;;;;;22.75;13.93;;;20.20;99.90;;;20.67;66.99;101756.66;4938038;29;20098;-67
2023/06/08 07:22:09;;;;;;;21.95;14.55;;;20.30;99.90;;;20.83;66.54;101748.13;4937690;29;20048;-69
2023/06/08 07:24:51;;;;;;;21.95;13.68;;;20.50;99.90;;;20.94;65.63;101748.63;4934273;29;20122;-71
2023/06/08 07:27:39;;;;;;;24.60;14.35;;;20.60;99.90;;;20.83;64.68;101737.38;4937661;29;20094;-70
2023/06/08 07:30:09;;;;;;;19.02;12.73;;;20.60;99.90;;;21.04;65.44;101751.00;4937436;29;20052;-68
2023/06/08 07:32:38;;;;;;;19.92;12.70;;;20.70;99.90;;;21.20;64.28;101748.66;4925388;29;20143;-71
2023/06/08 07:35:07;;;;;;;20.08;12.48;;;20.80;99.90;;;20.86;62.88;101675.38;4937632;29;20046;-71
2023/06/08 07:37:36;;;;;;;17.42;12.50;;;20.90;99.90;;;21.22;62.87;101736.03;4936229;29;20055;-68
2023/06/08 07:40:09;;;;;;;18.33;13.13;;;21.00;99.90;;;21.29;62.52;101740.28;4937453;29;20090;-69
2023/06/08 07:42:38;;;;;;;19.38;13.35;;;21.00;99.90;;;20.78;62.84;101637.09;4937424;29;20504;-71
2023/06/08 07:45:08;;;;;;;22.17;13.70;;;21.00;99.90;;;21.44;62.12;101739.75;4937437;29;20070;-69
2023/06/08 07:47:36;;;;;;;18.98;12.75;;;21.10;99.90;;;21.37;62.03;101735.50;4933190;29;20068;-70
2023/06/08 07:50:06;;;;;;;23.48;13.98;;;21.00;99.90;;;21.35;61.84;101745.47;4945104;29;20139;-71
2023/06/08 07:52:35;;;;;;;21.92;13.77;;;21.00;99.90;;;21.47;62.12;101745.03;4937148;29;20058;-69
2023/06/08 07:55:06;;;;;;;22.55;13.30;;;21.10;99.90;;;21.54;62.09;101743.88;4937090;29;20052;-70
2023/06/08 07:57:36;;;;;;;20.58;13.27;;;21.20;99.90;;;21.64;61.53;101747.97;4937147;29;20123;-71
2023/06/08 08:00:07;;;;;;;20.77;13.25;;;21.30;99.90;;;21.65;61.17;101743.47;4928293;29;20512;-71
2023/06/08 08:02:44;;;;;;;22.35;14.43;;;21.30;99.90;;;21.64;60.01;101734.50;4933313;29;20062;-72
2023/06/08 08:05:13;;;;;;;;;;;21.40;99.90;;;21.73;60.03;101736.91;4937414;29;20397;-69
2023/06/08 08:07:42;;;;;;;25.27;14.68;;;21.50;99.90;;;21.91;60.18;101743.47;4936924;29;19926;-60
2023/06/08 08:10:13;;;;;;;51.05;17.25;;;21.60;99.90;;;21.99;60.34;101734.13;4936834;29;20383;-59
2023/06/08 08:12:42;;;;;;;29.20;14.77;;;21.60;99.90;;;22.09;59.97;101748.13;4935334;29;20107;-63
2023/06/08 08:15:11;;;;;;;65.80;17.23;;;21.70;99.90;;;22.16;59.36;101744.28;4936758;29;20059;-64
2023/06/08 08:17:40;;;;;;;49.20;17.05;;;21.90;99.90;;;22.23;58.51;101744.00;4935730;29;20139;-64
2023/06/08 08:20:10;;;;;;;23.13;14.82;;;21.90;99.90;;;22.30;59.25;101753.59;4936597;29;20561;-72
2023/06/08 08:22:39;;;;;;;23.77;15.68;;;22.00;99.90;;;22.38;58.75;101751.50;4933557;29;20047;-69
2023/06/08 08:25:10;;;;;;;19.67;13.35;;;22.10;99.90;;;22.54;59.28;101743.69;4936385;29;20043;-70
2023/06/08 08:27:42;;;;;;;24.90;14.35;;;22.20;99.90;;;22.52;58.42;101744.66;4936594;29;20075;-71
2023/06/08 08:30:12;;;;;;;25.40;15.35;;;22.20;99.90;;;22.53;58.07;101738.34;4936478;29;20078;-71
2023/06/08 08:32:40;;;;;;;22.05;14.57;;;22.30;99.90;;;22.53;58.18;101727.56;4936361;29;20130;-71
2023/06/08 08:35:10;;;;;;;23.90;14.90;;;22.20;99.90;;;22.59;58.98;101719.25;4935232;29;20047;-74
2023/06/08 08:37:38;;;;;;;19.42;14.52;;;22.40;99.90;;;22.78;58.63;101737.34;4943065;29;20071;-70
2023/06/08 08:40:09;;;;;;;21.48;12.95;;;22.50;99.90;;;22.92;58.02;101725.94;4932664;29;20124;-70
2023/06/08 08:42:43;;;;;;;;;;;22.60;99.90;;;23.08;57.28;101733.34;4936737;29;20051;-70
2023/06/08 08:45:14;;;;;;;20.20;13.07;;;22.80;99.90;;;22.98;56.63;101721.19;4936182;29;19923;-70
2023/06/08 08:47:43;;;;;;;17.05;12.38;;;22.80;99.90;;;23.11;56.04;101745.84;4935117;29;20412;-70
2023/06/08 08:50:16;;;;;;;22.03;12.47;;;22.90;99.90;;;23.07;55.38;101731.56;4936073;29;20048;-70
2023/06/08 08:52:46;;;;;;;22.10;12.30;;;22.80;99.90;;;23.24;55.85;101730.88;4939768;29;20052;-70
2023/06/08 08:55:16;;;;;;;21.17;11.85;;;22.90;99.90;;;23.34;56.69;101736.78;4935982;29;20059;-71
2023/06/08 08:58:03;;;;;;;19.27;11.50;;;23.10;99.90;;;23.45;55.30;101727.28;4935962;29;20098;-70
2023/06/08 09:00:33;;;;;;;16.90;10.25;;;23.20;99.90;;;23.01;54.46;101632.00;4944523;29;20048;-70
2023/06/08 09:03:02;;;;;;;16.23;10.10;;;23.30;99.90;;;23.75;53.77;101741.25;4936028;29;20487;-70
2023/06/08 09:05:30;;;;;;;16.10;10.25;;;23.40;99.90;;;23.85;53.01;101746.16;4942855;29;20406;-71
2023/06/08 09:07:59;;;;;;;18.17;10.43;;;23.60;99.90;;;23.93;52.34;101735.00;4935741;29;20054;-71
2023/06/08 09:10:28;;;;;;;19.23;11.25;;;23.60;99.90;;;23.98;52.45;101738.38;4935662;29;20047;-70
2023/06/08 09:12:57;;;;;;;18.48;11.07;;;23.70;99.90;;;24.06;52.13;101744.38;4935019;29;20056;-70
2023/06/08 09:15:30;;;;;;;17.38;11.15;;;23.70;99.90;;;24.06;52.69;101741.66;4942863;29;20048;-71
2023/06/08 09:18:02;;;;;;;20.23;11.63;;;23.80;99.90;;;24.18;52.80;101739.25;4932058;29;20059;-70
2023/06/08 09:20:34;;;;;;;22.63;11.77;;;23.90;99.90;;;24.05;52.18;101737.19;4934271;29;20047;-70
2023/06/08 09:23:16;;;;;;;18.70;12.52;;;23.90;99.90;;;24.12;52.63;101738.63;4935494;29;20052;-70
2023/06/08 09:25:46;;;;;;;17.98;11.30;;;23.90;99.90;;;24.12;53.51;101738.63;4931789;29;20054;-71
2023/06/08 09:28:17;;;;;;;20.77;11.60;;;23.80;99.90;;;24.26;53.74;101733.47;4932356;29;20405;-71
2023/06/08 09:30:48;;;;;;;20.52;11.80;;;23.90;99.90;;;24.45;53.86;101733.50;4934105;29;20485;-68
2023/06/08 09:33:23;;;;;;;18.77;11.10;;;24.10;99.90;;;24.60;52.82;101739.00;4935669;29;20071;-68
2023/06/08 09:36:07;;;;;;;16.50;10.30;;;24.30;99.90;;;24.74;52.75;101730.25;4931128;29;20052;-70
2023/06/08 09:38:36;;;;;;;16.98;10.57;;;24.40;99.90;;;24.85;52.85;101722.50;4933885;29;20047;-68
2023/06/08 09:41:16;;;;;;;13.75;10.55;;;24.50;99.90;;;24.97;52.44;101730.88;4935327;29;20110;-66
2023/06/08 09:43:47;;;;;;;;;;;24.60;99.90;;;25.00;51.92;101721.72;4932523;29;20052;-66
2023/06/08 09:46:38;;;;;;;16.58;10.18;;;24.80;99.90;;;25.08;52.42;101724.94;4934355;29;19923;-69
2023/06/08 09:49:08;;;;;;;16.67;11.23;;;24.80;99.90;;;25.14;51.34;101713.78;4932129;29;20498;-68
2023/06/08 09:51:39;;;;;;;17.48;9.93;;;24.80;99.90;;;25.20;51.99;101716.19;4935011;29;20465;-68
2023/06/08 09:54:10;;;;;;;21.77;12.15;;;24.90;99.90;;;25.32;52.14;101722.81;4935286;29;20167;-69
2023/06/08 09:56:40;;;;;;;;;;;25.00;99.90;;;25.24;51.88;101720.47;4934433;29;20044;-68
2023/06/08 09:59:09;;;;;;;20.27;10.43;;;25.00;99.90;;;25.23;51.76;101718.72;4935075;29;20370;-69
2023/06/08 10:01:45;;;;;;;20.08;10.20;;;25.00;99.90;;;25.30;51.76;101722.00;4930791;29;20052;-67
2023/06/08 10:04:23;;;;;;;15.15;9.52;;;25.00;99.90;;;25.31;51.73;101715.63;4932295;29;20111;-68
2023/06/08 10:06:57;;;;;;;18.15;10.38;;;25.00;99.90;;;25.42;52.50;101716.84;4934007;29;20138;-68
2023/06/08 10:09:28;;;;;;;18.13;10.45;;;25.10;99.90;;;25.48;51.64;101713.81;4941907;29;20447;-68
2023/06/08 10:12:01;;;;;;;17.35;10.35;;;25.20;99.90;;;25.53;51.48;101710.88;4932187;29;20099;-68
2023/06/08 10:14:32;;;;;;;15.85;9.45;;;25.20;99.90;;;25.55;51.75;101709.81;4935543;29;20067;-67
2023/06/08 10:17:04;;;;;;;18.98;11.02;;;25.30;99.90;;;25.66;50.54;101706.53;4934863;29;20044;-68
2023/06/08 10:19:34;;;;;;;19.98;10.70;;;25.30;99.90;;;25.39;51.23;101713.38;4933965;29;20062;-68
2023/06/08 10:22:04;;;;;;;19.52;10.85;;;25.10;99.90;;;25.07;50.87;101706.06;4935092;29;20114;-68
2023/06/08 10:24:34;;;;;;;18.00;11.00;;;24.90;99.90;;;25.21;51.58;101695.38;4931677;29;20035;-67
2023/06/08 10:27:11;;;;;;;18.27;9.77;;;24.90;99.90;;;25.08;51.03;101703.25;4938111;29;20489;-69
2023/06/08 10:29:39;;;;;;;17.48;9.88;;;24.80;99.90;;;25.32;51.12;101707.41;4938711;29;20040;-68
2023/06/08 10:32:11;;;;;;;14.07;9.27;;;25.00;99.90;;;25.44;51.29;101704.09;4938445;29;20144;-68
2023/06/08 10:34:40;;;;;;;12.20;9.90;;;25.20;99.90;;;25.44;48.79;101704.09;4938568;29;20165;-67
2023/06/08 10:37:28;;;;;;;11.95;9.32;;;25.20;99.90;;;25.37;49.80;101704.47;4938688;29;20077;-68
2023/06/08 10:39:59;;;;;;;14.90;8.57;;;25.00;99.90;;;25.58;50.07;101709.66;4938501;29;20051;-69
2023/06/08 10:42:28;;;;;;;14.90;9.15;;;25.20;99.90;;;25.78;49.79;101708.59;4938310;29;20409;-67
2023/06/08 10:44:58;;;;;;;13.57;9.10;;;25.40;99.90;;;25.76;48.45;101697.81;4935240;29;20457;-67